createdAt,value
2018-04-13T00:02:07.512Z,10.90
2018-04-13T00:04:35.131Z,11.00
2018-04-13T00:07:02.699Z,11.00
2018-04-13T00:09:30.305Z,11.00
2018-04-13T00:11:57.921Z,11.00
2018-04-13T00:14:25.503Z,11.00
2018-04-13T00:16:53.101Z,11.00
2018-04-13T00:19:20.674Z,10.90
2018-04-13T00:21:48.286Z,10.90
2018-04-13T00:24:16.631Z,10.90
2018-04-13T00:26:44.233Z,10.90
2018-04-13T00:29:12.614Z,10.90
2018-04-13T00:31:41.002Z,10.90
2018-04-13T00:34:08.577Z,10.80
2018-04-13T00:36:36.184Z,10.90
2018-04-13T00:39:03.763Z,10.80
2018-04-13T00:41:31.383Z,10.80
2018-04-13T00:43:58.960Z,10.80
2018-04-13T00:46:26.579Z,10.70
2018-04-13T00:48:54.170Z,10.70
2018-04-13T00:51:21.828Z,10.70
2018-04-13T00:53:49.439Z,10.60
2018-04-13T00:56:17.072Z,10.60
2018-04-13T00:58:44.723Z,10.60
2018-04-13T01:01:12.335Z,10.60
2018-04-13T01:03:39.957Z,10.60
2018-04-13T01:06:07.554Z,10.60
2018-04-13T01:08:35.939Z,10.50
2018-04-13T01:11:03.518Z,10.50
2018-04-13T01:13:31.128Z,10.50
2018-04-13T01:15:58.727Z,10.50
2018-04-13T01:18:26.338Z,10.50
2018-04-13T01:20:53.909Z,10.40
2018-04-13T01:23:21.512Z,10.40
2018-04-13T01:25:49.124Z,10.50
2018-04-13T01:28:16.772Z,10.50
2018-04-13T01:30:44.384Z,10.60
2018-04-13T01:33:11.968Z,10.70
2018-04-13T01:35:39.578Z,10.80
2018-04-13T01:38:07.144Z,10.90
2018-04-13T01:40:34.833Z,11.20
2018-04-13T01:43:02.403Z,11.50
2018-04-13T01:45:30.121Z,11.80
2018-04-13T01:47:57.701Z,12.00
2018-04-13T01:50:26.077Z,12.30
2018-04-13T01:52:53.684Z,12.30
2018-04-13T01:55:21.263Z,12.40
2018-04-13T01:57:48.879Z,12.50
2018-04-13T02:00:17.276Z,12.60
2018-04-13T02:02:44.855Z,12.50
2018-04-13T02:05:12.465Z,12.60
2018-04-13T02:07:40.818Z,12.60
2018-04-13T02:10:08.428Z,12.60
2018-04-13T02:12:36.012Z,12.50
2018-04-13T02:15:05.681Z,12.60
2018-04-13T02:17:34.585Z,12.60
2018-04-13T02:20:02.929Z,12.60
2018-04-13T02:22:30.552Z,12.60
2018-04-13T02:24:59.614Z,12.60
2018-04-13T02:27:27.190Z,12.60
2018-04-13T02:29:54.773Z,12.60
2018-04-13T02:32:25.186Z,12.60
2018-04-13T02:34:52.824Z,12.60
2018-04-13T02:37:21.892Z,12.50
2018-04-13T02:39:54.369Z,12.40
2018-04-13T02:42:21.992Z,12.40
2018-04-13T02:44:49.569Z,12.40
2018-04-13T02:47:17.193Z,12.30
2018-04-13T02:49:44.786Z,12.30
2018-04-13T02:52:12.363Z,12.20
2018-04-13T02:54:39.960Z,12.20
2018-04-13T02:57:07.533Z,12.10
2018-04-13T02:59:35.176Z,12.10
2018-04-13T03:02:03.558Z,12.10
2018-04-13T03:04:31.935Z,12.10
2018-04-13T03:07:00.320Z,12.10
2018-04-13T03:09:28.660Z,12.10
2018-04-13T03:11:56.230Z,12.10
2018-04-13T03:14:23.871Z,12.10
2018-04-13T03:16:51.449Z,12.00
2018-04-13T03:19:19.075Z,11.90
2018-04-13T03:21:46.646Z,11.90
2018-04-13T03:24:14.218Z,11.80
2018-04-13T03:26:41.838Z,11.80
2018-04-13T03:29:09.420Z,11.70
2018-04-13T03:31:37.043Z,11.70
2018-04-13T03:34:04.627Z,11.70
2018-04-13T03:36:32.202Z,11.70
2018-04-13T03:38:59.822Z,11.70
2018-04-13T03:41:27.443Z,11.70
2018-04-13T03:43:55.063Z,11.70
2018-04-13T03:46:22.682Z,11.70
2018-04-13T03:48:50.293Z,11.70
2018-04-13T03:51:17.908Z,11.60
2018-04-13T03:53:45.529Z,11.60
2018-04-13T03:56:13.113Z,11.60
2018-04-13T03:58:40.690Z,11.50
2018-04-13T04:01:09.069Z,11.50
2018-04-13T04:03:37.451Z,11.50
2018-04-13T04:06:05.093Z,11.50
2018-04-13T04:08:32.708Z,11.50
2018-04-13T04:11:01.100Z,11.50
2018-04-13T04:13:28.722Z,11.50
2018-04-13T04:15:56.459Z,11.40
2018-04-13T04:18:24.915Z,11.40
2018-04-13T04:21:04.225Z,11.40
2018-04-13T04:23:44.355Z,11.30
2018-04-13T04:26:28.578Z,11.30
2018-04-13T04:28:56.449Z,11.20
2018-04-13T04:31:24.086Z,11.30
2018-04-13T04:33:51.667Z,11.30
2018-04-13T04:36:19.281Z,11.20
2018-04-13T04:38:47.621Z,11.30
2018-04-13T04:41:16.005Z,11.30
2018-04-13T04:43:43.585Z,11.30
2018-04-13T04:46:11.218Z,11.30
2018-04-13T04:48:38.880Z,11.30
2018-04-13T04:51:06.465Z,11.30
2018-04-13T04:53:34.083Z,11.30
2018-04-13T04:56:02.073Z,11.30
2018-04-13T04:58:30.497Z,11.20
2018-04-13T05:00:58.122Z,11.20
2018-04-13T05:03:26.475Z,11.10
2018-04-13T05:05:54.098Z,11.10
2018-04-13T05:08:21.920Z,11.10
2018-04-13T05:10:49.572Z,11.00
2018-04-13T05:13:17.151Z,11.00
2018-04-13T05:15:44.757Z,10.90
2018-04-13T05:18:12.369Z,10.90
2018-04-13T05:20:39.958Z,10.90
2018-04-13T05:23:07.580Z,10.80
2018-04-13T05:25:37.518Z,10.80
2018-04-13T05:28:06.460Z,10.70
2018-04-13T05:30:34.142Z,10.70
2018-04-13T05:33:01.774Z,10.70
2018-04-13T05:35:29.389Z,10.70
2018-04-13T05:37:57.007Z,10.70
2018-04-13T05:40:25.344Z,10.90
2018-04-13T05:42:52.978Z,10.80
2018-04-13T05:45:20.556Z,10.90
2018-04-13T05:47:48.500Z,10.90
2018-04-13T05:50:16.241Z,10.90
2018-04-13T05:52:44.584Z,10.80
2018-04-13T05:55:12.202Z,10.80
2018-04-13T05:57:39.779Z,10.90
2018-04-13T06:00:07.424Z,10.90
2018-04-13T06:02:35.002Z,10.90
2018-04-13T06:05:02.612Z,10.90
2018-04-13T06:07:31.012Z,10.90
2018-04-13T06:09:58.597Z,10.90
2018-04-13T06:12:26.177Z,10.90
2018-04-13T06:14:53.798Z,11.00
2018-04-13T06:17:21.416Z,11.00
2018-04-13T06:19:49.028Z,11.10
2018-04-13T06:22:16.611Z,11.10
2018-04-13T06:24:44.234Z,11.20
2018-04-13T06:27:11.859Z,11.30
2018-04-13T06:29:40.880Z,11.30
2018-04-13T06:32:10.022Z,11.40
2018-04-13T06:34:39.209Z,11.50
2018-04-13T06:37:07.566Z,11.50
2018-04-13T06:39:35.367Z,11.60
2018-04-13T06:42:04.311Z,11.60
2018-04-13T06:44:33.113Z,11.60
2018-04-13T06:47:00.922Z,11.60
2018-04-13T06:49:28.533Z,11.60
2018-04-13T06:51:56.874Z,11.70
2018-04-13T06:54:27.510Z,11.70
2018-04-13T06:56:55.142Z,11.70
2018-04-13T06:59:22.717Z,11.80
2018-04-13T07:01:50.306Z,11.80
2018-04-13T07:04:17.923Z,11.90
2018-04-13T07:06:45.505Z,11.90
2018-04-13T07:09:13.119Z,12.00
2018-04-13T07:11:41.462Z,12.00
2018-04-13T07:14:09.084Z,12.10
2018-04-13T07:16:36.663Z,12.10
2018-04-13T07:19:04.285Z,12.20
2018-04-13T07:21:31.866Z,12.30
2018-04-13T07:23:59.491Z,12.30
2018-04-13T07:26:27.078Z,12.40
2018-04-13T07:28:54.697Z,12.40
2018-04-13T07:31:22.275Z,12.60
2018-04-13T07:33:49.894Z,12.70
2018-04-13T07:36:17.760Z,13.00
2018-04-13T07:38:45.114Z,13.10
2018-04-13T07:41:12.737Z,13.30
2018-04-13T07:43:40.331Z,13.50
2018-04-13T07:46:07.981Z,13.50
2018-04-13T07:48:35.564Z,13.40
2018-04-13T07:51:03.148Z,13.40
2018-04-13T07:53:30.777Z,13.40
2018-04-13T07:55:58.362Z,13.50
2018-04-13T07:58:25.986Z,13.50
2018-04-13T08:00:53.945Z,13.60
2018-04-13T08:03:21.221Z,13.60
2018-04-13T08:05:48.954Z,13.70
2018-04-13T08:08:16.461Z,13.90
2018-04-13T08:10:44.241Z,14.00
2018-04-13T08:13:12.412Z,14.20
2018-04-13T08:15:40.038Z,14.20
2018-04-13T08:18:07.649Z,14.30
2018-04-13T08:20:35.277Z,14.40
2018-04-13T08:23:02.864Z,14.50
2018-04-13T08:25:30.514Z,14.60
2018-04-13T08:27:58.137Z,14.50
2018-04-13T08:30:25.718Z,14.60
2018-04-13T08:32:53.351Z,14.60
2018-04-13T08:35:20.979Z,14.70
2018-04-13T08:37:48.574Z,14.80
2018-04-13T08:40:16.187Z,14.80
2018-04-13T08:42:43.778Z,14.80
2018-04-13T08:45:12.163Z,15.10
2018-04-13T08:47:40.508Z,15.10
2018-04-13T08:50:08.129Z,15.00
2018-04-13T08:52:35.715Z,15.00
2018-04-13T08:55:03.354Z,15.00
2018-04-13T08:57:30.949Z,15.10
2018-04-13T08:59:58.570Z,15.20
2018-04-13T09:02:26.148Z,15.30
2018-04-13T09:04:53.762Z,15.50
2018-04-13T09:07:21.350Z,15.60
2018-04-13T09:09:49.000Z,15.80
2018-04-13T09:12:16.627Z,16.00
2018-04-13T09:14:44.215Z,16.20
2018-04-13T09:17:12.608Z,16.40
2018-04-13T09:19:40.945Z,16.50
2018-04-13T09:22:08.565Z,16.50
2018-04-13T09:24:36.781Z,16.50
2018-04-13T09:27:05.731Z,16.40
2018-04-13T09:29:34.410Z,16.30
2018-04-13T09:32:02.319Z,16.30
2018-04-13T09:34:30.195Z,16.40
2018-04-13T09:37:01.335Z,16.70
2018-04-13T09:39:30.157Z,16.80
2018-04-13T09:41:58.231Z,16.80
2018-04-13T09:44:26.449Z,16.90
2018-04-13T09:46:55.150Z,17.00
2018-04-13T09:49:24.025Z,17.10
2018-04-13T09:51:52.606Z,17.10
2018-04-13T09:54:20.827Z,17.10
2018-04-13T09:56:49.752Z,17.00
2018-04-13T09:59:17.957Z,17.00
2018-04-13T10:01:46.266Z,16.90
2018-04-13T10:04:14.663Z,16.90
2018-04-13T10:06:43.660Z,16.80
2018-04-13T10:09:11.861Z,16.70
2018-04-13T10:11:39.955Z,16.70
2018-04-13T10:14:08.995Z,16.80
2018-04-13T10:16:37.822Z,16.90
2018-04-13T10:19:06.044Z,17.20
2018-04-13T10:21:34.384Z,17.30
2018-04-13T10:24:02.520Z,17.50
2018-04-13T10:26:30.686Z,17.60
2018-04-13T10:28:58.938Z,17.70
2018-04-13T10:31:27.919Z,18.00
2018-04-13T10:33:56.142Z,17.90
2018-04-13T10:36:24.393Z,18.10
2018-04-13T10:38:53.433Z,18.20
2018-04-13T10:41:21.883Z,18.20
2018-04-13T10:43:50.187Z,18.20
2018-04-13T10:46:18.677Z,18.30
2018-04-13T10:48:47.621Z,18.30
2018-04-13T10:51:15.711Z,18.40
2018-04-13T10:53:43.772Z,18.40
2018-04-13T10:56:11.453Z,18.40
2018-04-13T10:58:39.078Z,18.30
2018-04-13T11:01:06.667Z,18.30
2018-04-13T11:03:34.304Z,18.30
2018-04-13T11:06:01.898Z,18.40
2018-04-13T11:08:30.304Z,18.60
2018-04-13T11:10:59.624Z,18.70
2018-04-13T11:13:27.549Z,18.60
2018-04-13T11:15:55.428Z,18.70
2018-04-13T11:18:25.248Z,18.80
2018-04-13T11:20:53.601Z,18.70
2018-04-13T11:23:21.953Z,18.80
2018-04-13T11:25:51.111Z,18.90
2018-04-13T11:28:20.024Z,19.10
2018-04-13T11:30:48.258Z,19.40
2018-04-13T11:33:16.397Z,19.70
2018-04-13T11:35:45.142Z,19.90
2018-04-13T11:38:13.349Z,20.10
2018-04-13T11:40:41.619Z,20.30
2018-04-13T11:43:09.804Z,20.40
2018-04-13T11:45:38.071Z,20.40
2018-04-13T11:48:06.343Z,20.40
2018-04-13T11:50:35.885Z,20.50
2018-04-13T11:53:04.035Z,20.40
2018-04-13T11:55:32.300Z,20.40
2018-04-13T11:58:00.526Z,20.50
2018-04-13T12:00:29.998Z,20.50
2018-04-13T12:02:58.335Z,20.00
2018-04-13T12:05:26.476Z,19.70
2018-04-13T12:07:54.655Z,19.30
2018-04-13T12:10:23.080Z,19.20
2018-04-13T12:12:50.863Z,19.10
2018-04-13T12:15:18.919Z,19.10
2018-04-13T12:17:47.494Z,19.10
2018-04-13T12:20:15.781Z,19.10
2018-04-13T12:22:44.123Z,19.10
2018-04-13T12:25:12.272Z,19.10
2018-04-13T12:27:40.942Z,19.10
2018-04-13T12:30:10.955Z,19.10
2018-04-13T12:32:39.752Z,18.80
2018-04-13T12:35:10.993Z,18.40
2018-04-13T12:37:38.720Z,18.30
2018-04-13T12:40:06.488Z,18.20
2018-04-13T12:42:34.547Z,18.00
2018-04-13T12:45:04.932Z,17.50
2018-04-13T12:47:35.028Z,17.40
2018-04-13T12:50:06.661Z,17.30
2018-04-13T12:52:35.002Z,17.20
2018-04-13T12:55:04.233Z,17.10
2018-04-13T12:57:32.750Z,17.10
2018-04-13T13:00:01.114Z,17.10
2018-04-13T13:02:29.424Z,16.90
2018-04-13T13:04:57.500Z,16.80
2018-04-13T13:07:25.551Z,16.80
2018-04-13T13:09:53.590Z,16.80
2018-04-13T13:12:21.519Z,16.80
2018-04-13T13:14:50.531Z,16.80
2018-04-13T13:17:18.584Z,16.80
2018-04-13T13:19:47.286Z,16.80
2018-04-13T13:22:16.240Z,16.70
2018-04-13T13:24:45.032Z,16.70
2018-04-13T13:27:13.251Z,16.70
2018-04-13T13:29:41.370Z,16.70
2018-04-13T13:32:10.824Z,16.80
2018-04-13T13:34:39.458Z,16.80
2018-04-13T13:37:07.722Z,16.70
2018-04-13T13:39:35.919Z,16.60
2018-04-13T13:42:03.538Z,16.60
2018-04-13T13:44:31.158Z,16.50
2018-04-13T13:46:58.739Z,16.60
2018-04-13T13:49:26.370Z,16.60
2018-04-13T13:51:53.990Z,16.70
2018-04-13T13:54:21.601Z,16.70
2018-04-13T13:56:49.233Z,16.70
2018-04-13T13:59:16.844Z,16.70
2018-04-13T14:01:44.426Z,16.80
2018-04-13T14:04:12.069Z,16.80
2018-04-13T14:06:39.645Z,16.90
2018-04-13T14:09:07.274Z,16.90
2018-04-13T14:11:34.847Z,16.90
2018-04-13T14:14:02.474Z,16.90
2018-04-13T14:16:30.094Z,16.90
2018-04-13T14:18:57.703Z,16.80
2018-04-13T14:21:25.279Z,16.70
2018-04-13T14:23:52.900Z,16.70
2018-04-13T14:26:21.244Z,16.70
2018-04-13T14:28:48.871Z,16.60
2018-04-13T14:31:16.453Z,16.60
2018-04-13T14:33:44.088Z,16.60
2018-04-13T14:36:11.676Z,16.50
2018-04-13T14:38:39.316Z,16.50
2018-04-13T14:41:06.923Z,16.60
2018-04-13T14:43:34.575Z,16.60
2018-04-13T14:46:02.154Z,16.60
2018-04-13T14:48:29.785Z,16.70
2018-04-13T14:50:57.369Z,16.70
2018-04-13T14:53:24.981Z,16.70
2018-04-13T14:55:52.683Z,16.70
2018-04-13T14:58:20.298Z,16.80
2018-04-13T15:00:47.881Z,16.70
2018-04-13T15:03:15.511Z,16.60
2018-04-13T15:05:43.112Z,16.60
2018-04-13T15:08:10.682Z,16.60
2018-04-13T15:10:38.342Z,16.60
2018-04-13T15:13:07.295Z,16.60
2018-04-13T15:15:38.151Z,16.70
2018-04-13T15:18:06.596Z,16.80
2018-04-13T15:20:34.949Z,16.90
2018-04-13T15:23:02.562Z,16.90
2018-04-13T15:25:30.201Z,17.00
2018-04-13T15:27:57.827Z,17.00
2018-04-13T15:30:25.858Z,16.90
2018-04-13T15:32:55.460Z,16.90
2018-04-13T15:35:27.201Z,16.70
2018-04-13T15:37:56.826Z,16.60
2018-04-13T15:40:24.610Z,16.60
2018-04-13T15:42:52.266Z,16.50
2018-04-13T15:45:22.664Z,16.60
2018-04-13T15:47:51.016Z,16.50
2018-04-13T15:50:18.603Z,16.40
2018-04-13T15:52:46.226Z,16.50
2018-04-13T15:55:13.904Z,16.50
2018-04-13T15:57:41.566Z,16.40
2018-04-13T16:00:10.235Z,16.40
2018-04-13T16:02:38.722Z,16.20
2018-04-13T16:05:07.199Z,15.90
2018-04-13T16:07:34.782Z,15.90
2018-04-13T16:10:02.402Z,15.80
2018-04-13T16:12:30.010Z,15.70
2018-04-13T16:14:57.636Z,15.60
2018-04-13T16:17:25.277Z,15.50
2018-04-13T16:19:52.881Z,15.40
2018-04-13T16:22:20.460Z,15.30
2018-04-13T16:24:48.842Z,15.00
2018-04-13T16:27:16.425Z,15.00
2018-04-13T16:29:44.038Z,14.90
2018-04-13T16:32:11.660Z,14.80
2018-04-13T16:34:39.242Z,14.80
2018-04-13T16:37:06.898Z,14.70
2018-04-13T16:39:34.474Z,14.50
2018-04-13T16:42:02.201Z,14.40
2018-04-13T16:44:30.506Z,14.20
2018-04-13T16:46:58.146Z,14.20
2018-04-13T16:49:25.726Z,14.00
2018-04-13T16:51:53.399Z,13.80
2018-04-13T16:54:21.104Z,13.60
2018-04-13T16:56:49.144Z,13.60
2018-04-13T16:59:18.487Z,13.50
2018-04-13T17:01:46.692Z,13.50
2018-04-13T17:04:15.144Z,13.40
2018-04-13T17:06:43.727Z,13.40
2018-04-13T17:09:12.037Z,13.30
2018-04-13T17:11:40.263Z,13.20
2018-04-13T17:14:08.637Z,13.20
2018-04-13T17:16:36.716Z,13.10
2018-04-13T17:19:04.833Z,13.00
2018-04-13T17:21:32.874Z,12.90
2018-04-13T17:24:01.003Z,12.80
2018-04-13T17:26:29.917Z,12.80
2018-04-13T17:28:57.899Z,12.80
2018-04-13T17:31:26.011Z,12.70
2018-04-13T17:33:54.275Z,12.70
2018-04-13T17:36:22.380Z,12.60
2018-04-13T17:38:50.067Z,12.40
2018-04-13T17:41:17.696Z,12.40
2018-04-13T17:43:46.391Z,12.20
2018-04-13T17:46:14.135Z,12.20
2018-04-13T17:48:41.714Z,12.20
2018-04-13T17:51:09.299Z,12.10
2018-04-13T17:53:40.157Z,12.20
2018-04-13T17:56:07.810Z,12.20
2018-04-13T17:58:36.161Z,12.10
2018-04-13T18:01:03.787Z,12.10
2018-04-13T18:03:31.533Z,12.00
2018-04-13T18:05:59.895Z,11.90
2018-04-13T18:08:27.499Z,11.90
2018-04-13T18:10:55.139Z,11.90
2018-04-13T18:13:23.517Z,11.80
2018-04-13T18:15:52.198Z,11.70
2018-04-13T18:18:20.595Z,11.70
2018-04-13T18:20:48.280Z,11.70
2018-04-13T18:23:15.861Z,11.60
2018-04-13T18:25:43.450Z,11.50
2018-04-13T18:28:11.076Z,11.40
2018-04-13T18:30:38.747Z,11.30
2018-04-13T18:33:06.368Z,11.30
2018-04-13T18:35:34.772Z,11.10
2018-04-13T18:38:02.402Z,11.10
2018-04-13T18:40:30.010Z,11.20
2018-04-13T18:42:57.767Z,11.10
2018-04-13T18:45:25.345Z,11.00
2018-04-13T18:47:53.000Z,11.00
2018-04-13T18:50:20.613Z,10.90
2018-04-13T18:52:48.973Z,10.90
2018-04-13T18:55:16.605Z,10.80
2018-04-13T18:57:44.206Z,10.80
2018-04-13T19:00:12.605Z,10.80
2018-04-13T19:02:40.234Z,10.70
2018-04-13T19:05:07.827Z,10.70
2018-04-13T19:07:35.498Z,10.60
2018-04-13T19:10:03.881Z,10.60
2018-04-13T19:12:31.877Z,10.50
2018-04-13T19:14:59.915Z,10.40
2018-04-13T19:17:27.755Z,10.40
2018-04-13T19:19:55.576Z,10.30
2018-04-13T19:22:23.500Z,10.30
2018-04-13T19:24:51.874Z,10.20
2018-04-13T19:27:20.277Z,10.20
2018-04-13T19:29:47.888Z,10.20
2018-04-13T19:32:15.525Z,10.20
2018-04-13T19:34:43.218Z,10.10
2018-04-13T19:37:10.867Z,10.10
2018-04-13T19:39:38.505Z,10.10
2018-04-13T19:42:06.348Z,10.00
2018-04-13T19:44:33.936Z,9.90
2018-04-13T19:47:01.582Z,9.80
2018-04-13T19:49:29.466Z,9.70
2018-04-13T19:51:57.313Z,9.60
2018-04-13T19:54:24.951Z,9.50
2018-04-13T19:56:52.581Z,9.40
2018-04-13T19:59:20.201Z,9.40
2018-04-13T20:01:47.868Z,9.30
2018-04-13T20:04:15.554Z,9.30
2018-04-13T20:06:43.191Z,9.30
2018-04-13T20:09:10.818Z,9.30
2018-04-13T20:11:38.503Z,9.30
2018-04-13T20:14:06.922Z,9.20
2018-04-13T20:16:34.573Z,9.20
2018-04-13T20:19:02.331Z,9.20
2018-04-13T20:21:29.919Z,9.20
2018-04-13T20:23:57.594Z,9.20
2018-04-13T20:26:25.258Z,9.20
2018-04-13T20:28:52.927Z,9.20
2018-04-13T20:31:20.547Z,9.10
2018-04-13T20:33:48.141Z,9.10
2018-04-13T20:36:15.813Z,9.10
2018-04-13T20:38:43.433Z,9.10
2018-04-13T20:41:11.010Z,9.10
2018-04-13T20:43:38.669Z,9.10
2018-04-13T20:46:06.301Z,9.10
2018-04-13T20:48:33.899Z,9.10
2018-04-13T20:51:01.602Z,9.10
2018-04-13T20:53:29.217Z,9.20
2018-04-13T20:55:56.899Z,9.20
2018-04-13T20:58:24.552Z,9.20
2018-04-13T21:00:52.225Z,9.20
2018-04-13T21:03:19.832Z,9.20
2018-04-13T21:05:47.415Z,9.20
2018-04-13T21:08:15.077Z,9.20
2018-04-13T21:10:42.792Z,9.20
2018-04-13T21:13:10.468Z,9.20
2018-04-13T21:15:38.895Z,9.20
2018-04-13T21:18:08.697Z,9.10
2018-04-13T21:20:36.598Z,9.20
2018-04-13T21:23:04.226Z,9.20
2018-04-13T21:25:32.320Z,9.20
2018-04-13T21:28:00.501Z,9.20
2018-04-13T21:30:28.824Z,9.20
2018-04-13T21:32:56.647Z,9.20
2018-04-13T21:35:24.824Z,9.30
2018-04-13T21:37:52.528Z,9.20
2018-04-13T21:40:20.637Z,9.20
2018-04-13T21:42:48.443Z,9.20
2018-04-13T21:45:16.062Z,9.20
2018-04-13T21:47:43.862Z,9.20
2018-04-13T21:50:11.505Z,9.20
2018-04-13T21:52:39.126Z,9.20
2018-04-13T21:55:06.718Z,9.20
2018-04-13T21:57:35.755Z,9.20
2018-04-13T22:00:03.393Z,9.20
2018-04-13T22:02:30.991Z,9.30
2018-04-13T22:04:58.607Z,9.30
2018-04-13T22:07:26.192Z,9.20
2018-04-13T22:09:53.811Z,9.20
2018-04-13T22:12:33.151Z,9.20
2018-04-13T22:15:00.794Z,9.20
2018-04-13T22:17:28.365Z,9.20
2018-04-13T22:19:56.200Z,9.20
2018-04-13T22:22:24.132Z,9.20
2018-04-13T22:24:51.884Z,9.10
2018-04-13T22:27:19.457Z,9.20
2018-04-13T22:29:47.075Z,9.20
2018-04-13T22:32:14.658Z,9.10
2018-04-13T22:34:42.409Z,9.10
2018-04-13T22:37:09.990Z,9.10
2018-04-13T22:39:37.576Z,9.10
2018-04-13T22:42:05.186Z,9.10
2018-04-13T22:44:32.810Z,9.10
2018-04-13T22:47:00.434Z,9.10
2018-04-13T22:49:28.020Z,9.10
2018-04-13T22:51:55.589Z,9.10
2018-04-13T22:54:23.205Z,9.00
2018-04-13T22:56:50.782Z,9.10
2018-04-13T22:59:18.398Z,9.00
2018-04-13T23:01:46.744Z,9.00
2018-04-13T23:04:14.323Z,9.00
2018-04-13T23:06:41.954Z,9.00
2018-04-13T23:09:09.543Z,8.90
2018-04-13T23:11:37.138Z,8.90
2018-04-13T23:14:04.757Z,8.90
2018-04-13T23:16:32.336Z,8.80
2018-04-13T23:19:00.001Z,8.80
2018-04-13T23:21:27.602Z,8.80
2018-04-13T23:23:55.178Z,8.70
2018-04-13T23:26:22.786Z,8.70
2018-04-13T23:28:50.369Z,8.70
2018-04-13T23:31:17.987Z,8.60
2018-04-13T23:33:45.561Z,8.60
2018-04-13T23:36:13.187Z,8.60
2018-04-13T23:38:40.754Z,8.60
2018-04-13T23:41:08.371Z,8.60
2018-04-13T23:43:35.982Z,8.50
2018-04-13T23:46:03.618Z,8.50
2018-04-13T23:48:31.234Z,8.50
2018-04-13T23:50:59.582Z,8.40
2018-04-13T23:53:27.194Z,8.30
2018-04-13T23:55:54.773Z,8.30
2018-04-13T23:58:22.389Z,8.30
